sensor_id;sensor_type;location;lat;lon;timestamp;temperature;humidity
66708;DHT22;53622;0.000;0.000;2023-07-08T00:01:20;24.70;64.40
66708;DHT22;53622;0.000;0.000;2023-07-08T00:03:49;24.70;64.30
66708;DHT22;53622;0.000;0.000;2023-07-08T00:06:21;24.70;64.30
66708;DHT22;53622;0.000;0.000;2023-07-08T00:08:50;24.70;64.70
66708;DHT22;53622;0.000;0.000;2023-07-08T00:11:20;24.70;64.80
66708;DHT22;53622;0.000;0.000;2023-07-08T00:13:50;24.70;64.90
66708;DHT22;53622;0.000;0.000;2023-07-08T00:16:20;24.70;65.00
66708;DHT22;53622;0.000;0.000;2023-07-08T00:18:49;24.70;64.90
66708;DHT22;53622;0.000;0.000;2023-07-08T00:21:18;24.50;65.00
66708;DHT22;53622;0.000;0.000;2023-07-08T00:23:48;24.40;65.80
66708;DHT22;53622;0.000;0.000;2023-07-08T00:26:22;24.40;66.10
66708;DHT22;53622;0.000;0.000;2023-07-08T00:28:53;24.40;66.50
66708;DHT22;53622;0.000;0.000;2023-07-08T00:31:24;24.40;67.00
66708;DHT22;53622;0.000;0.000;2023-07-08T00:33:55;24.40;66.50
66708;DHT22;53622;0.000;0.000;2023-07-08T00:36:26;24.40;66.70
66708;DHT22;53622;0.000;0.000;2023-07-08T00:38:56;24.40;66.90
66708;DHT22;53622;0.000;0.000;2023-07-08T00:41:28;24.50;66.00
66708;DHT22;53622;0.000;0.000;2023-07-08T00:44:00;24.50;66.10
66708;DHT22;53622;0.000;0.000;2023-07-08T00:46:40;24.60;66.10
66708;DHT22;53622;0.000;0.000;2023-07-08T00:49:24;24.60;66.30
66708;DHT22;53622;0.000;0.000;2023-07-08T00:51:55;24.60;66.60
66708;DHT22;53622;0.000;0.000;2023-07-08T00:54:24;24.60;66.60
66708;DHT22;53622;0.000;0.000;2023-07-08T00:56:56;24.60;66.60
66708;DHT22;53622;0.000;0.000;2023-07-08T00:59:31;24.50;66.90
66708;DHT22;53622;0.000;0.000;2023-07-08T01:02:04;24.50;67.50
66708;DHT22;53622;0.000;0.000;2023-07-08T01:04:39;24.50;67.30
66708;DHT22;53622;0.000;0.000;2023-07-08T01:07:11;24.50;67.20
66708;DHT22;53622;0.000;0.000;2023-07-08T01:09:44;24.50;67.40
66708;DHT22;53622;0.000;0.000;2023-07-08T01:12:19;24.50;67.30
66708;DHT22;53622;0.000;0.000;2023-07-08T01:14:52;24.40;67.80
66708;DHT22;53622;0.000;0.000;2023-07-08T01:17:23;24.40;68.10
66708;DHT22;53622;0.000;0.000;2023-07-08T01:19:52;24.40;68.30
66708;DHT22;53622;0.000;0.000;2023-07-08T01:22:24;24.40;68.50
66708;DHT22;53622;0.000;0.000;2023-07-08T01:25:01;24.40;68.40
66708;DHT22;53622;0.000;0.000;2023-07-08T01:27:34;24.40;67.80
66708;DHT22;53622;0.000;0.000;2023-07-08T01:30:05;24.40;67.60
66708;DHT22;53622;0.000;0.000;2023-07-08T01:32:38;24.30;66.80
66708;DHT22;53622;0.000;0.000;2023-07-08T01:35:09;24.30;66.70
66708;DHT22;53622;0.000;0.000;2023-07-08T01:37:44;24.40;66.00
66708;DHT22;53622;0.000;0.000;2023-07-08T01:40:23;24.40;65.00
66708;DHT22;53622;0.000;0.000;2023-07-08T01:42:53;24.50;65.00
66708;DHT22;53622;0.000;0.000;2023-07-08T01:45:24;24.40;65.20
66708;DHT22;53622;0.000;0.000;2023-07-08T01:47:57;24.30;66.00
66708;DHT22;53622;0.000;0.000;2023-07-08T01:50:28;24.20;66.50
66708;DHT22;53622;0.000;0.000;2023-07-08T01:53:00;24.10;67.10
66708;DHT22;53622;0.000;0.000;2023-07-08T01:55:31;24.20;67.30
66708;DHT22;53622;0.000;0.000;2023-07-08T01:58:00;24.20;67.20
66708;DHT22;53622;0.000;0.000;2023-07-08T02:00:30;24.20;67.50
66708;DHT22;53622;0.000;0.000;2023-07-08T02:02:59;24.30;67.50
66708;DHT22;53622;0.000;0.000;2023-07-08T02:05:29;24.30;67.30
66708;DHT22;53622;0.000;0.000;2023-07-08T02:07:59;24.40;67.30
66708;DHT22;53622;0.000;0.000;2023-07-08T02:10:29;24.40;67.30
66708;DHT22;53622;0.000;0.000;2023-07-08T02:13:00;24.40;67.40
66708;DHT22;53622;0.000;0.000;2023-07-08T02:15:29;24.40;67.60
66708;DHT22;53622;0.000;0.000;2023-07-08T02:18:00;24.30;67.60
66708;DHT22;53622;0.000;0.000;2023-07-08T02:20:29;24.30;67.70
66708;DHT22;53622;0.000;0.000;2023-07-08T02:23:00;24.30;68.00
66708;DHT22;53622;0.000;0.000;2023-07-08T02:25:29;24.20;67.90
66708;DHT22;53622;0.000;0.000;2023-07-08T02:27:58;24.10;68.30
66708;DHT22;53622;0.000;0.000;2023-07-08T02:30:28;24.10;68.50
66708;DHT22;53622;0.000;0.000;2023-07-08T02:32:57;24.10;68.50
66708;DHT22;53622;0.000;0.000;2023-07-08T02:35:28;24.10;68.00
66708;DHT22;53622;0.000;0.000;2023-07-08T02:37:57;24.10;67.70
66708;DHT22;53622;0.000;0.000;2023-07-08T02:40:28;24.20;67.60
66708;DHT22;53622;0.000;0.000;2023-07-08T02:42:57;24.20;67.60
66708;DHT22;53622;0.000;0.000;2023-07-08T02:45:26;24.20;67.60
66708;DHT22;53622;0.000;0.000;2023-07-08T02:47:56;24.10;67.60
66708;DHT22;53622;0.000;0.000;2023-07-08T02:50:25;24.10;67.60
66708;DHT22;53622;0.000;0.000;2023-07-08T02:52:54;24.00;68.30
66708;DHT22;53622;0.000;0.000;2023-07-08T02:55:24;24.00;68.30
66708;DHT22;53622;0.000;0.000;2023-07-08T02:57:54;23.90;68.50
66708;DHT22;53622;0.000;0.000;2023-07-08T03:00:23;23.90;68.70
66708;DHT22;53622;0.000;0.000;2023-07-08T03:02:53;23.90;69.40
66708;DHT22;53622;0.000;0.000;2023-07-08T03:05:22;23.90;68.90
66708;DHT22;53622;0.000;0.000;2023-07-08T03:07:51;24.00;68.70
66708;DHT22;53622;0.000;0.000;2023-07-08T03:10:21;24.00;68.40
66708;DHT22;53622;0.000;0.000;2023-07-08T03:12:50;24.00;68.30
66708;DHT22;53622;0.000;0.000;2023-07-08T03:15:21;24.00;68.30
66708;DHT22;53622;0.000;0.000;2023-07-08T03:17:50;24.00;68.30
66708;DHT22;53622;0.000;0.000;2023-07-08T03:20:21;24.00;68.10
66708;DHT22;53622;0.000;0.000;2023-07-08T03:22:51;24.00;68.00
66708;DHT22;53622;0.000;0.000;2023-07-08T03:25:20;24.00;67.70
66708;DHT22;53622;0.000;0.000;2023-07-08T03:27:51;24.00;68.00
66708;DHT22;53622;0.000;0.000;2023-07-08T03:30:25;24.00;67.90
66708;DHT22;53622;0.000;0.000;2023-07-08T03:32:55;24.00;67.90
66708;DHT22;53622;0.000;0.000;2023-07-08T03:35:25;24.00;67.70
66708;DHT22;53622;0.000;0.000;2023-07-08T03:37:54;24.00;67.50
66708;DHT22;53622;0.000;0.000;2023-07-08T03:40:23;24.00;67.40
66708;DHT22;53622;0.000;0.000;2023-07-08T03:42:52;24.00;67.40
66708;DHT22;53622;0.000;0.000;2023-07-08T03:45:23;24.00;67.60
66708;DHT22;53622;0.000;0.000;2023-07-08T03:47:53;23.90;67.80
66708;DHT22;53622;0.000;0.000;2023-07-08T03:50:25;24.00;67.70
66708;DHT22;53622;0.000;0.000;2023-07-08T03:52:55;24.00;67.40
66708;DHT22;53622;0.000;0.000;2023-07-08T03:55:28;24.00;67.30
66708;DHT22;53622;0.000;0.000;2023-07-08T03:57:59;23.90;67.10
66708;DHT22;53622;0.000;0.000;2023-07-08T04:00:30;24.00;67.10
66708;DHT22;53622;0.000;0.000;2023-07-08T04:03:03;23.90;66.70
66708;DHT22;53622;0.000;0.000;2023-07-08T04:05:33;23.80;66.30
66708;DHT22;53622;0.000;0.000;2023-07-08T04:08:02;23.80;66.50
66708;DHT22;53622;0.000;0.000;2023-07-08T04:10:32;23.80;66.20
66708;DHT22;53622;0.000;0.000;2023-07-08T04:13:01;23.80;66.10
66708;DHT22;53622;0.000;0.000;2023-07-08T04:15:30;23.80;66.00
66708;DHT22;53622;0.000;0.000;2023-07-08T04:18:00;23.80;65.90
66708;DHT22;53622;0.000;0.000;2023-07-08T04:20:30;23.80;65.80
66708;DHT22;53622;0.000;0.000;2023-07-08T04:23:01;23.80;65.50
66708;DHT22;53622;0.000;0.000;2023-07-08T04:25:30;23.80;65.70
66708;DHT22;53622;0.000;0.000;2023-07-08T04:27:59;23.80;66.20
66708;DHT22;53622;0.000;0.000;2023-07-08T04:30:29;23.80;66.50
66708;DHT22;53622;0.000;0.000;2023-07-08T04:32:58;23.70;66.80
66708;DHT22;53622;0.000;0.000;2023-07-08T04:35:27;23.70;67.40
66708;DHT22;53622;0.000;0.000;2023-07-08T04:37:59;23.70;67.60
66708;DHT22;53622;0.000;0.000;2023-07-08T04:40:29;23.60;67.80
66708;DHT22;53622;0.000;0.000;2023-07-08T04:42:58;23.60;67.80
66708;DHT22;53622;0.000;0.000;2023-07-08T04:45:28;23.60;67.60
66708;DHT22;53622;0.000;0.000;2023-07-08T04:47:57;23.60;67.70
66708;DHT22;53622;0.000;0.000;2023-07-08T04:50:27;23.60;67.30
66708;DHT22;53622;0.000;0.000;2023-07-08T04:52:57;23.60;67.10
66708;DHT22;53622;0.000;0.000;2023-07-08T04:55:26;23.60;67.40
66708;DHT22;53622;0.000;0.000;2023-07-08T04:57:56;23.50;67.50
66708;DHT22;53622;0.000;0.000;2023-07-08T05:00:25;23.50;67.50
66708;DHT22;53622;0.000;0.000;2023-07-08T05:02:54;23.50;66.90
66708;DHT22;53622;0.000;0.000;2023-07-08T05:05:24;23.50;66.70
66708;DHT22;53622;0.000;0.000;2023-07-08T05:07:53;23.50;66.60
66708;DHT22;53622;0.000;0.000;2023-07-08T05:10:24;23.50;66.60
66708;DHT22;53622;0.000;0.000;2023-07-08T05:12:54;23.50;66.20
66708;DHT22;53622;0.000;0.000;2023-07-08T05:15:23;23.50;65.70
66708;DHT22;53622;0.000;0.000;2023-07-08T05:17:52;23.50;65.80
66708;DHT22;53622;0.000;0.000;2023-07-08T05:20:22;23.50;65.70
66708;DHT22;53622;0.000;0.000;2023-07-08T05:22:51;23.50;65.70
66708;DHT22;53622;0.000;0.000;2023-07-08T05:25:20;23.50;66.60
66708;DHT22;53622;0.000;0.000;2023-07-08T05:27:51;23.50;66.70
66708;DHT22;53622;0.000;0.000;2023-07-08T05:30:20;23.50;66.60
66708;DHT22;53622;0.000;0.000;2023-07-08T05:32:50;23.40;66.30
66708;DHT22;53622;0.000;0.000;2023-07-08T05:35:19;23.40;67.20
66708;DHT22;53622;0.000;0.000;2023-07-08T05:37:48;23.40;67.40
66708;DHT22;53622;0.000;0.000;2023-07-08T05:40:18;23.50;66.90
66708;DHT22;53622;0.000;0.000;2023-07-08T05:42:47;23.50;66.50
66708;DHT22;53622;0.000;0.000;2023-07-08T05:45:18;23.60;66.70
66708;DHT22;53622;0.000;0.000;2023-07-08T05:47:47;23.60;66.50
66708;DHT22;53622;0.000;0.000;2023-07-08T05:50:16;23.70;66.50
66708;DHT22;53622;0.000;0.000;2023-07-08T05:52:46;23.80;66.60
66708;DHT22;53622;0.000;0.000;2023-07-08T05:55:15;23.80;67.10
66708;DHT22;53622;0.000;0.000;2023-07-08T05:57:44;23.80;68.00
66708;DHT22;53622;0.000;0.000;2023-07-08T06:00:14;23.90;68.80
66708;DHT22;53622;0.000;0.000;2023-07-08T06:03:01;23.90;69.00
66708;DHT22;53622;0.000;0.000;2023-07-08T06:05:31;23.90;69.20
66708;DHT22;53622;0.000;0.000;2023-07-08T06:08:01;24.00;69.80
66708;DHT22;53622;0.000;0.000;2023-07-08T06:10:30;24.00;69.70
66708;DHT22;53622;0.000;0.000;2023-07-08T06:13:00;24.00;69.50
66708;DHT22;53622;0.000;0.000;2023-07-08T06:15:29;24.00;69.50
66708;DHT22;53622;0.000;0.000;2023-07-08T06:17:58;24.10;69.50
66708;DHT22;53622;0.000;0.000;2023-07-08T06:20:31;24.10;69.20
66708;DHT22;53622;0.000;0.000;2023-07-08T06:23:01;24.10;70.00
66708;DHT22;53622;0.000;0.000;2023-07-08T06:25:32;24.10;69.20
66708;DHT22;53622;0.000;0.000;2023-07-08T06:28:01;24.10;69.50
66708;DHT22;53622;0.000;0.000;2023-07-08T06:30:31;24.20;69.30
66708;DHT22;53622;0.000;0.000;2023-07-08T06:33:00;24.20;69.20
66708;DHT22;53622;0.000;0.000;2023-07-08T06:35:31;24.20;69.00
66708;DHT22;53622;0.000;0.000;2023-07-08T06:38:00;24.20;69.40
66708;DHT22;53622;0.000;0.000;2023-07-08T06:40:29;24.30;69.10
66708;DHT22;53622;0.000;0.000;2023-07-08T06:42:59;24.30;68.70
66708;DHT22;53622;0.000;0.000;2023-07-08T06:45:43;24.30;68.90
66708;DHT22;53622;0.000;0.000;2023-07-08T06:48:13;24.30;68.90
66708;DHT22;53622;0.000;0.000;2023-07-08T06:50:45;24.40;68.60
66708;DHT22;53622;0.000;0.000;2023-07-08T06:53:15;24.40;68.60
66708;DHT22;53622;0.000;0.000;2023-07-08T06:55:45;24.40;68.90
66708;DHT22;53622;0.000;0.000;2023-07-08T06:58:14;24.40;68.80
66708;DHT22;53622;0.000;0.000;2023-07-08T07:00:44;24.40;68.80
66708;DHT22;53622;0.000;0.000;2023-07-08T07:03:14;24.40;69.20
66708;DHT22;53622;0.000;0.000;2023-07-08T07:05:44;24.40;69.70
66708;DHT22;53622;0.000;0.000;2023-07-08T07:08:15;24.50;69.20
66708;DHT22;53622;0.000;0.000;2023-07-08T07:10:45;24.50;69.10
66708;DHT22;53622;0.000;0.000;2023-07-08T07:13:14;24.50;69.20
66708;DHT22;53622;0.000;0.000;2023-07-08T07:15:43;24.50;69.60
66708;DHT22;53622;0.000;0.000;2023-07-08T07:18:16;24.50;70.10
66708;DHT22;53622;0.000;0.000;2023-07-08T07:20:53;24.50;69.90
66708;DHT22;53622;0.000;0.000;2023-07-08T07:23:23;24.50;70.10
66708;DHT22;53622;0.000;0.000;2023-07-08T07:25:53;24.40;70.30
66708;DHT22;53622;0.000;0.000;2023-07-08T07:28:22;24.40;70.70
66708;DHT22;53622;0.000;0.000;2023-07-08T07:30:57;24.50;70.80
66708;DHT22;53622;0.000;0.000;2023-07-08T07:33:27;24.60;70.50
66708;DHT22;53622;0.000;0.000;2023-07-08T07:35:58;24.50;70.30
66708;DHT22;53622;0.000;0.000;2023-07-08T07:38:27;24.50;72.10
66708;DHT22;53622;0.000;0.000;2023-07-08T07:40:57;24.60;70.40
66708;DHT22;53622;0.000;0.000;2023-07-08T07:43:28;24.60;70.80
66708;DHT22;53622;0.000;0.000;2023-07-08T07:45:57;24.70;70.50
66708;DHT22;53622;0.000;0.000;2023-07-08T07:48:27;24.70;70.20
66708;DHT22;53622;0.000;0.000;2023-07-08T07:50:57;24.70;70.40
66708;DHT22;53622;0.000;0.000;2023-07-08T07:53:27;24.70;70.70
66708;DHT22;53622;0.000;0.000;2023-07-08T07:55:57;24.70;70.60
66708;DHT22;53622;0.000;0.000;2023-07-08T07:58:27;24.70;71.10
66708;DHT22;53622;0.000;0.000;2023-07-08T08:00:57;24.70;71.00
66708;DHT22;53622;0.000;0.000;2023-07-08T08:03:26;24.80;72.10
66708;DHT22;53622;0.000;0.000;2023-07-08T08:05:57;24.80;71.70
66708;DHT22;53622;0.000;0.000;2023-07-08T08:08:27;24.80;72.70
66708;DHT22;53622;0.000;0.000;2023-07-08T08:10:56;24.80;72.10
66708;DHT22;53622;0.000;0.000;2023-07-08T08:13:26;24.80;72.20
66708;DHT22;53622;0.000;0.000;2023-07-08T08:15:59;24.80;72.00
66708;DHT22;53622;0.000;0.000;2023-07-08T08:18:29;24.80;72.00
66708;DHT22;53622;0.000;0.000;2023-07-08T08:21:00;24.70;71.90
66708;DHT22;53622;0.000;0.000;2023-07-08T08:23:29;24.80;72.10
66708;DHT22;53622;0.000;0.000;2023-07-08T08:25:58;24.80;72.30
66708;DHT22;53622;0.000;0.000;2023-07-08T08:28:28;24.80;71.80
66708;DHT22;53622;0.000;0.000;2023-07-08T08:30:58;24.80;71.90
66708;DHT22;53622;0.000;0.000;2023-07-08T08:33:27;24.80;71.90
66708;DHT22;53622;0.000;0.000;2023-07-08T08:35:57;24.80;72.60
66708;DHT22;53622;0.000;0.000;2023-07-08T08:38:28;24.80;72.00
66708;DHT22;53622;0.000;0.000;2023-07-08T08:40:57;24.80;71.80
66708;DHT22;53622;0.000;0.000;2023-07-08T08:43:36;24.80;72.00
66708;DHT22;53622;0.000;0.000;2023-07-08T08:46:11;24.80;72.40
66708;DHT22;53622;0.000;0.000;2023-07-08T08:48:49;24.80;72.30
66708;DHT22;53622;0.000;0.000;2023-07-08T08:51:20;24.70;72.20
66708;DHT22;53622;0.000;0.000;2023-07-08T08:53:54;24.70;72.30
66708;DHT22;53622;0.000;0.000;2023-07-08T08:56:28;24.70;73.60
66708;DHT22;53622;0.000;0.000;2023-07-08T08:59:01;24.70;73.20
66708;DHT22;53622;0.000;0.000;2023-07-08T09:01:33;24.70;72.90
66708;DHT22;53622;0.000;0.000;2023-07-08T09:04:08;24.70;72.90
66708;DHT22;53622;0.000;0.000;2023-07-08T09:06:40;24.80;72.80
66708;DHT22;53622;0.000;0.000;2023-07-08T09:09:15;24.80;72.50
66708;DHT22;53622;0.000;0.000;2023-07-08T09:11:52;24.80;72.50
66708;DHT22;53622;0.000;0.000;2023-07-08T09:14:26;24.80;72.90
66708;DHT22;53622;0.000;0.000;2023-07-08T09:17:01;24.80;72.90
66708;DHT22;53622;0.000;0.000;2023-07-08T09:19:41;24.70;72.90
66708;DHT22;53622;0.000;0.000;2023-07-08T09:22:15;24.70;73.30
66708;DHT22;53622;0.000;0.000;2023-07-08T09:24:51;24.70;73.90
66708;DHT22;53622;0.000;0.000;2023-07-08T09:27:20;24.70;74.00
66708;DHT22;53622;0.000;0.000;2023-07-08T09:29:51;24.80;73.80
66708;DHT22;53622;0.000;0.000;2023-07-08T09:32:27;24.70;74.10
66708;DHT22;53622;0.000;0.000;2023-07-08T09:35:04;24.70;73.40
66708;DHT22;53622;0.000;0.000;2023-07-08T09:37:36;24.80;73.30
66708;DHT22;53622;0.000;0.000;2023-07-08T09:40:16;24.70;73.10
66708;DHT22;53622;0.000;0.000;2023-07-08T09:42:49;24.70;73.00
66708;DHT22;53622;0.000;0.000;2023-07-08T09:45:22;24.70;72.80
66708;DHT22;53622;0.000;0.000;2023-07-08T09:47:53;24.80;73.10
66708;DHT22;53622;0.000;0.000;2023-07-08T09:50:24;24.70;73.20
66708;DHT22;53622;0.000;0.000;2023-07-08T09:52:55;24.70;73.00
66708;DHT22;53622;0.000;0.000;2023-07-08T09:55:29;24.80;73.40
66708;DHT22;53622;0.000;0.000;2023-07-08T09:57:59;24.80;73.70
66708;DHT22;53622;0.000;0.000;2023-07-08T10:00:39;24.90;74.20
66708;DHT22;53622;0.000;0.000;2023-07-08T10:03:15;25.00;74.30
66708;DHT22;53622;0.000;0.000;2023-07-08T10:05:48;25.00;73.40
66708;DHT22;53622;0.000;0.000;2023-07-08T10:08:20;25.00;73.30
66708;DHT22;53622;0.000;0.000;2023-07-08T10:10:57;25.00;73.20
66708;DHT22;53622;0.000;0.000;2023-07-08T10:13:42;25.00;73.00
66708;DHT22;53622;0.000;0.000;2023-07-08T10:16:15;25.00;73.10
66708;DHT22;53622;0.000;0.000;2023-07-08T10:18:46;25.00;73.30
66708;DHT22;53622;0.000;0.000;2023-07-08T10:21:25;25.00;73.10
66708;DHT22;53622;0.000;0.000;2023-07-08T10:24:00;25.10;72.80
66708;DHT22;53622;0.000;0.000;2023-07-08T10:26:33;25.10;72.60
66708;DHT22;53622;0.000;0.000;2023-07-08T10:29:12;25.10;72.20
66708;DHT22;53622;0.000;0.000;2023-07-08T10:31:49;25.10;72.10
66708;DHT22;53622;0.000;0.000;2023-07-08T10:34:28;25.10;72.00
66708;DHT22;53622;0.000;0.000;2023-07-08T10:37:07;25.10;72.20
66708;DHT22;53622;0.000;0.000;2023-07-08T10:40:02;25.10;72.20
66708;DHT22;53622;0.000;0.000;2023-07-08T10:42:56;25.20;71.90
66708;DHT22;53622;0.000;0.000;2023-07-08T10:45:34;25.20;71.50
66708;DHT22;53622;0.000;0.000;2023-07-08T10:48:22;25.20;71.40
66708;DHT22;53622;0.000;0.000;2023-07-08T10:51:04;25.20;71.20
66708;DHT22;53622;0.000;0.000;2023-07-08T10:53:53;25.20;71.30
66708;DHT22;53622;0.000;0.000;2023-07-08T10:56:32;25.20;71.30
66708;DHT22;53622;0.000;0.000;2023-07-08T10:59:26;25.20;71.40
66708;DHT22;53622;0.000;0.000;2023-07-08T11:02:26;25.20;71.50
66708;DHT22;53622;0.000;0.000;2023-07-08T11:05:09;25.20;71.50
66708;DHT22;53622;0.000;0.000;2023-07-08T11:07:44;25.20;71.30
66708;DHT22;53622;0.000;0.000;2023-07-08T11:10:18;25.20;71.30
66708;DHT22;53622;0.000;0.000;2023-07-08T11:12:52;25.20;71.30
66708;DHT22;53622;0.000;0.000;2023-07-08T11:15:28;25.20;71.40
66708;DHT22;53622;0.000;0.000;2023-07-08T11:18:04;25.20;71.40
66708;DHT22;53622;0.000;0.000;2023-07-08T11:20:38;25.20;71.40
66708;DHT22;53622;0.000;0.000;2023-07-08T11:23:22;25.20;71.40
66708;DHT22;53622;0.000;0.000;2023-07-08T11:26:06;25.20;71.40
66708;DHT22;53622;0.000;0.000;2023-07-08T11:28:36;25.20;71.50
66708;DHT22;53622;0.000;0.000;2023-07-08T11:31:07;25.20;71.90
66708;DHT22;53622;0.000;0.000;2023-07-08T11:33:38;25.20;72.10
66708;DHT22;53622;0.000;0.000;2023-07-08T11:36:09;25.20;72.20
66708;DHT22;53622;0.000;0.000;2023-07-08T11:38:47;25.20;72.20
66708;DHT22;53622;0.000;0.000;2023-07-08T11:41:21;25.30;72.30
66708;DHT22;53622;0.000;0.000;2023-07-08T11:44:18;25.30;72.40
66708;DHT22;53622;0.000;0.000;2023-07-08T11:47:00;25.30;72.30
66708;DHT22;53622;0.000;0.000;2023-07-08T11:49:29;25.30;72.40
66708;DHT22;53622;0.000;0.000;2023-07-08T11:52:05;25.30;72.30
66708;DHT22;53622;0.000;0.000;2023-07-08T11:54:35;25.30;72.20
66708;DHT22;53622;0.000;0.000;2023-07-08T11:57:17;25.30;72.20
66708;DHT22;53622;0.000;0.000;2023-07-08T11:59:47;25.30;72.20
66708;DHT22;53622;0.000;0.000;2023-07-08T12:02:48;25.30;72.20
66708;DHT22;53622;0.000;0.000;2023-07-08T12:05:29;25.30;72.40
66708;DHT22;53622;0.000;0.000;2023-07-08T12:08:00;25.40;72.20
66708;DHT22;53622;0.000;0.000;2023-07-08T12:10:34;25.30;72.20
66708;DHT22;53622;0.000;0.000;2023-07-08T12:13:09;25.40;72.10
66708;DHT22;53622;0.000;0.000;2023-07-08T12:15:40;25.40;72.20
66708;DHT22;53622;0.000;0.000;2023-07-08T12:18:15;25.40;72.30
66708;DHT22;53622;0.000;0.000;2023-07-08T12:20:46;25.20;72.90
66708;DHT22;53622;0.000;0.000;2023-07-08T12:23:19;25.10;73.40
66708;DHT22;53622;0.000;0.000;2023-07-08T12:25:50;25.00;73.90
66708;DHT22;53622;0.000;0.000;2023-07-08T12:28:21;25.00;74.20
66708;DHT22;53622;0.000;0.000;2023-07-08T12:30:51;24.90;74.40
66708;DHT22;53622;0.000;0.000;2023-07-08T12:33:27;24.90;74.80
66708;DHT22;53622;0.000;0.000;2023-07-08T12:35:57;24.90;74.90
66708;DHT22;53622;0.000;0.000;2023-07-08T12:38:30;24.90;75.20
66708;DHT22;53622;0.000;0.000;2023-07-08T12:41:02;24.80;74.90
66708;DHT22;53622;0.000;0.000;2023-07-08T12:43:34;24.90;75.00
66708;DHT22;53622;0.000;0.000;2023-07-08T12:46:04;24.90;75.20
66708;DHT22;53622;0.000;0.000;2023-07-08T12:48:36;24.90;75.20
66708;DHT22;53622;0.000;0.000;2023-07-08T12:51:10;24.80;75.30
66708;DHT22;53622;0.000;0.000;2023-07-08T12:53:40;24.90;75.30
66708;DHT22;53622;0.000;0.000;2023-07-08T12:56:11;24.90;75.10
66708;DHT22;53622;0.000;0.000;2023-07-08T12:58:42;24.90;75.20
66708;DHT22;53622;0.000;0.000;2023-07-08T13:01:16;24.90;75.20
66708;DHT22;53622;0.000;0.000;2023-07-08T13:03:50;24.90;75.10
66708;DHT22;53622;0.000;0.000;2023-07-08T13:06:24;24.90;75.00
66708;DHT22;53622;0.000;0.000;2023-07-08T13:08:54;24.90;75.00
66708;DHT22;53622;0.000;0.000;2023-07-08T13:11:28;24.90;75.20
66708;DHT22;53622;0.000;0.000;2023-07-08T13:13:59;24.90;75.00
66708;DHT22;53622;0.000;0.000;2023-07-08T13:16:33;24.90;75.00
66708;DHT22;53622;0.000;0.000;2023-07-08T13:19:04;24.90;75.00
66708;DHT22;53622;0.000;0.000;2023-07-08T13:21:34;24.90;75.00
66708;DHT22;53622;0.000;0.000;2023-07-08T13:24:07;24.90;75.10
66708;DHT22;53622;0.000;0.000;2023-07-08T13:26:38;24.90;75.00
66708;DHT22;53622;0.000;0.000;2023-07-08T13:29:12;24.90;75.20
66708;DHT22;53622;0.000;0.000;2023-07-08T13:31:47;24.90;75.20
66708;DHT22;53622;0.000;0.000;2023-07-08T13:34:19;25.00;75.20
66708;DHT22;53622;0.000;0.000;2023-07-08T13:36:51;25.00;75.30
66708;DHT22;53622;0.000;0.000;2023-07-08T13:39:25;25.00;75.10
66708;DHT22;53622;0.000;0.000;2023-07-08T13:41:55;25.00;75.10
66708;DHT22;53622;0.000;0.000;2023-07-08T13:44:25;25.00;75.10
66708;DHT22;53622;0.000;0.000;2023-07-08T13:46:56;25.00;75.10
66708;DHT22;53622;0.000;0.000;2023-07-08T13:49:30;25.00;75.00
66708;DHT22;53622;0.000;0.000;2023-07-08T13:52:08;25.00;75.00
66708;DHT22;53622;0.000;0.000;2023-07-08T13:54:45;25.00;75.10
66708;DHT22;53622;0.000;0.000;2023-07-08T13:57:19;25.00;75.80
66708;DHT22;53622;0.000;0.000;2023-07-08T13:59:48;25.00;74.80
66708;DHT22;53622;0.000;0.000;2023-07-08T14:02:20;25.00;74.70
66708;DHT22;53622;0.000;0.000;2023-07-08T14:04:52;25.00;74.60
66708;DHT22;53622;0.000;0.000;2023-07-08T14:07:24;25.00;74.60
66708;DHT22;53622;0.000;0.000;2023-07-08T14:09:54;25.00;74.60
66708;DHT22;53622;0.000;0.000;2023-07-08T14:12:24;25.10;74.90
66708;DHT22;53622;0.000;0.000;2023-07-08T14:14:53;25.00;74.90
66708;DHT22;53622;0.000;0.000;2023-07-08T14:17:24;25.10;75.00
66708;DHT22;53622;0.000;0.000;2023-07-08T14:19:56;25.10;75.00
66708;DHT22;53622;0.000;0.000;2023-07-08T14:22:27;25.10;75.20
66708;DHT22;53622;0.000;0.000;2023-07-08T14:25:01;25.10;75.30
66708;DHT22;53622;0.000;0.000;2023-07-08T14:27:30;25.10;75.20
66708;DHT22;53622;0.000;0.000;2023-07-08T14:30:00;25.10;75.20
66708;DHT22;53622;0.000;0.000;2023-07-08T14:32:30;25.10;75.30
66708;DHT22;53622;0.000;0.000;2023-07-08T14:35:13;25.10;75.30
66708;DHT22;53622;0.000;0.000;2023-07-08T14:37:43;25.10;75.30
66708;DHT22;53622;0.000;0.000;2023-07-08T14:40:25;25.10;75.50
66708;DHT22;53622;0.000;0.000;2023-07-08T14:43:01;25.10;75.50
66708;DHT22;53622;0.000;0.000;2023-07-08T14:45:37;25.10;75.70
66708;DHT22;53622;0.000;0.000;2023-07-08T14:48:08;25.10;75.50
66708;DHT22;53622;0.000;0.000;2023-07-08T14:50:40;25.10;75.50
66708;DHT22;53622;0.000;0.000;2023-07-08T14:53:10;25.10;75.30
66708;DHT22;53622;0.000;0.000;2023-07-08T14:55:39;25.20;75.20
66708;DHT22;53622;0.000;0.000;2023-07-08T14:58:11;25.20;75.10
66708;DHT22;53622;0.000;0.000;2023-07-08T15:00:46;25.20;75.10
66708;DHT22;53622;0.000;0.000;2023-07-08T15:03:15;25.20;75.10
66708;DHT22;53622;0.000;0.000;2023-07-08T15:05:46;25.20;75.90
66708;DHT22;53622;0.000;0.000;2023-07-08T15:08:15;25.20;75.10
66708;DHT22;53622;0.000;0.000;2023-07-08T15:10:48;25.20;75.00
66708;DHT22;53622;0.000;0.000;2023-07-08T15:13:19;25.20;75.60
66708;DHT22;53622;0.000;0.000;2023-07-08T15:15:49;25.20;75.40
66708;DHT22;53622;0.000;0.000;2023-07-08T15:18:19;25.20;75.40
66708;DHT22;53622;0.000;0.000;2023-07-08T15:20:50;25.20;75.30
66708;DHT22;53622;0.000;0.000;2023-07-08T15:23:19;25.20;75.80
66708;DHT22;53622;0.000;0.000;2023-07-08T15:25:48;25.20;75.40
66708;DHT22;53622;0.000;0.000;2023-07-08T15:28:25;25.20;75.40
66708;DHT22;53622;0.000;0.000;2023-07-08T15:31:01;25.20;75.30
66708;DHT22;53622;0.000;0.000;2023-07-08T15:33:31;25.20;75.10
66708;DHT22;53622;0.000;0.000;2023-07-08T15:36:02;25.20;75.10
66708;DHT22;53622;0.000;0.000;2023-07-08T15:38:31;25.20;74.90
66708;DHT22;53622;0.000;0.000;2023-07-08T15:41:01;25.20;75.00
66708;DHT22;53622;0.000;0.000;2023-07-08T15:43:31;25.20;75.40
66708;DHT22;53622;0.000;0.000;2023-07-08T15:46:02;25.20;75.80
66708;DHT22;53622;0.000;0.000;2023-07-08T15:48:31;25.20;76.60
66708;DHT22;53622;0.000;0.000;2023-07-08T15:51:02;25.20;76.70
66708;DHT22;53622;0.000;0.000;2023-07-08T15:53:31;25.20;76.50
66708;DHT22;53622;0.000;0.000;2023-07-08T15:56:00;25.20;76.30
66708;DHT22;53622;0.000;0.000;2023-07-08T15:58:33;25.20;76.20
66708;DHT22;53622;0.000;0.000;2023-07-08T16:01:03;25.20;76.20
66708;DHT22;53622;0.000;0.000;2023-07-08T16:03:35;25.20;76.00
66708;DHT22;53622;0.000;0.000;2023-07-08T16:06:08;25.20;76.10
66708;DHT22;53622;0.000;0.000;2023-07-08T16:08:38;25.20;76.10
66708;DHT22;53622;0.000;0.000;2023-07-08T16:11:12;25.20;76.10
66708;DHT22;53622;0.000;0.000;2023-07-08T16:13:43;25.20;76.00
66708;DHT22;53622;0.000;0.000;2023-07-08T16:16:14;25.20;76.00